sensor_id;sensor_type;location;lat;lon;timestamp;pressure;altitude;pressure_sealevel;temperature;humidity
41062;BME280;26812;42.662;23.352;2023-02-04T00:01:42;94718.94;;;2.99;65.96
41062;BME280;26812;42.662;23.352;2023-02-04T00:04:07;94720.59;;;2.85;66.93
41062;BME280;26812;42.662;23.352;2023-02-04T00:06:32;94707.56;;;2.84;66.86
41062;BME280;26812;42.662;23.352;2023-02-04T00:08:58;94696.69;;;2.75;68.08
41062;BME280;26812;42.662;23.352;2023-02-04T00:11:23;94692.97;;;2.71;68.13
41062;BME280;26812;42.662;23.352;2023-02-04T00:13:49;94697.03;;;2.58;69.06
41062;BME280;26812;42.662;23.352;2023-02-04T00:16:14;94702.88;;;2.55;69.22
41062;BME280;26812;42.662;23.352;2023-02-04T00:18:39;94690.91;;;2.58;69.40
41062;BME280;26812;42.662;23.352;2023-02-04T00:21:05;94674.16;;;2.57;69.58
41062;BME280;26812;42.662;23.352;2023-02-04T00:23:30;94683.38;;;2.75;69.18
41062;BME280;26812;42.662;23.352;2023-02-04T00:26:04;94680.72;;;2.80;68.72
41062;BME280;26812;42.662;23.352;2023-02-04T00:28:29;94653.44;;;2.54;69.34
41062;BME280;26812;42.662;23.352;2023-02-04T00:30:55;94674.09;;;2.77;69.21
41062;BME280;26812;42.662;23.352;2023-02-04T00:33:20;94663.44;;;2.77;69.58
41062;BME280;26812;42.662;23.352;2023-02-04T00:35:52;94641.41;;;2.67;68.77
41062;BME280;26812;42.662;23.352;2023-02-04T00:38:25;94679.66;;;2.81;68.93
41062;BME280;26812;42.662;23.352;2023-02-04T00:40:50;94674.34;;;2.76;69.55
41062;BME280;26812;42.662;23.352;2023-02-04T00:43:16;94662.13;;;2.70;69.98
41062;BME280;26812;42.662;23.352;2023-02-04T00:45:41;94622.69;;;2.28;69.74
41062;BME280;26812;42.662;23.352;2023-02-04T00:48:06;94670.47;;;2.43;70.65
41062;BME280;26812;42.662;23.352;2023-02-04T00:50:32;94667.00;;;2.53;69.92
41062;BME280;26812;42.662;23.352;2023-02-04T00:53:00;94656.19;;;2.29;70.82
41062;BME280;26812;42.662;23.352;2023-02-04T00:55:26;94630.91;;;2.31;70.61
41062;BME280;26812;42.662;23.352;2023-02-04T00:57:52;94678.13;;;2.60;70.52
41062;BME280;26812;42.662;23.352;2023-02-04T01:00:17;94661.41;;;2.54;70.87
41062;BME280;26812;42.662;23.352;2023-02-04T01:02:43;94666.69;;;2.64;70.17
41062;BME280;26812;42.662;23.352;2023-02-04T01:05:08;94644.16;;;2.46;70.54
41062;BME280;26812;42.662;23.352;2023-02-04T01:07:34;94634.84;;;2.49;70.03
41062;BME280;26812;42.662;23.352;2023-02-04T01:10:00;94615.56;;;2.08;71.03
41062;BME280;26812;42.662;23.352;2023-02-04T01:12:25;94629.34;;;2.25;71.39
41062;BME280;26812;42.662;23.352;2023-02-04T01:14:53;94618.13;;;2.33;71.35
41062;BME280;26812;42.662;23.352;2023-02-04T01:17:18;94605.44;;;2.20;70.88
41062;BME280;26812;42.662;23.352;2023-02-04T01:19:45;94581.22;;;2.27;70.96
41062;BME280;26812;42.662;23.352;2023-02-04T01:22:11;94631.94;;;2.45;70.88
41062;BME280;26812;42.662;23.352;2023-02-04T01:24:36;94606.69;;;2.38;71.66
41062;BME280;26812;42.662;23.352;2023-02-04T01:27:02;94603.59;;;2.15;71.56
41062;BME280;26812;42.662;23.352;2023-02-04T01:29:27;94586.84;;;2.10;72.62
41062;BME280;26812;42.662;23.352;2023-02-04T01:31:53;94569.84;;;2.16;72.12
41062;BME280;26812;42.662;23.352;2023-02-04T01:34:18;94592.06;;;2.35;72.16
41062;BME280;26812;42.662;23.352;2023-02-04T01:36:43;94584.66;;;2.32;71.99
41062;BME280;26812;42.662;23.352;2023-02-04T01:39:09;94555.53;;;2.02;71.42
41062;BME280;26812;42.662;23.352;2023-02-04T01:41:34;94593.25;;;2.09;72.27
41062;BME280;26812;42.662;23.352;2023-02-04T01:44:00;94574.94;;;2.02;72.41
41062;BME280;26812;42.662;23.352;2023-02-04T01:46:25;94541.47;;;1.96;72.79
41062;BME280;26812;42.662;23.352;2023-02-04T01:48:51;94590.03;;;2.12;72.21
41062;BME280;26812;42.662;23.352;2023-02-04T01:51:23;94584.19;;;2.10;72.80
41062;BME280;26812;42.662;23.352;2023-02-04T01:53:51;94585.00;;;2.15;72.71
41062;BME280;26812;42.662;23.352;2023-02-04T01:56:18;94571.44;;;2.12;72.60
41062;BME280;26812;42.662;23.352;2023-02-04T01:58:45;94573.53;;;2.25;72.30
41062;BME280;26812;42.662;23.352;2023-02-04T02:03:56;94555.84;;;1.95;71.52
41062;BME280;26812;42.662;23.352;2023-02-04T02:06:22;94571.47;;;2.02;72.63
41062;BME280;26812;42.662;23.352;2023-02-04T02:08:47;94571.41;;;2.22;72.55
41062;BME280;26812;42.662;23.352;2023-02-04T02:11:13;94556.94;;;1.79;71.59
41062;BME280;26812;42.662;23.352;2023-02-04T02:13:38;94567.84;;;1.67;73.65
41062;BME280;26812;42.662;23.352;2023-02-04T02:16:04;94545.28;;;1.70;73.39
41062;BME280;26812;42.662;23.352;2023-02-04T02:18:29;94542.84;;;1.89;72.89
41062;BME280;26812;42.662;23.352;2023-02-04T02:20:56;94518.06;;;2.03;72.18
41062;BME280;26812;42.662;23.352;2023-02-04T02:26:08;94540.25;;;2.33;70.21
41062;BME280;26812;42.662;23.352;2023-02-04T02:28:33;94512.16;;;2.11;70.94
41062;BME280;26812;42.662;23.352;2023-02-04T02:30:59;94520.66;;;2.13;71.13
41062;BME280;26812;42.662;23.352;2023-02-04T02:33:24;94516.72;;;2.06;71.01
41062;BME280;26812;42.662;23.352;2023-02-04T02:35:50;94446.47;;;1.73;71.26
41062;BME280;26812;42.662;23.352;2023-02-04T02:38:17;94487.72;;;2.09;71.56
41062;BME280;26812;42.662;23.352;2023-02-04T02:40:43;94471.25;;;2.12;71.23
41062;BME280;26812;42.662;23.352;2023-02-04T02:43:29;94467.38;;;1.95;71.16
41062;BME280;26812;42.662;23.352;2023-02-04T02:45:57;94452.97;;;2.01;71.36
41062;BME280;26812;42.662;23.352;2023-02-04T02:48:23;94428.25;;;2.05;70.91
41062;BME280;26812;42.662;23.352;2023-02-04T02:50:49;94473.41;;;2.05;70.56
41062;BME280;26812;42.662;23.352;2023-02-04T02:53:17;94461.13;;;2.20;70.92
41062;BME280;26812;42.662;23.352;2023-02-04T02:55:43;94473.97;;;2.46;69.34
41062;BME280;26812;42.662;23.352;2023-02-04T02:58:15;94465.22;;;2.46;69.81
41062;BME280;26812;42.662;23.352;2023-02-04T03:00:40;94472.06;;;2.08;70.02
41062;BME280;26812;42.662;23.352;2023-02-04T03:03:26;94483.19;;;2.20;70.26
41062;BME280;26812;42.662;23.352;2023-02-04T03:05:56;94465.81;;;2.33;70.56
41062;BME280;26812;42.662;23.352;2023-02-04T03:08:24;94469.19;;;2.48;69.18
41062;BME280;26812;42.662;23.352;2023-02-04T03:10:50;94457.75;;;2.43;69.10
41062;BME280;26812;42.662;23.352;2023-02-04T03:13:16;94478.44;;;2.56;68.83
41062;BME280;26812;42.662;23.352;2023-02-04T03:15:43;94481.25;;;2.31;69.07
41062;BME280;26812;42.662;23.352;2023-02-04T03:18:10;94443.88;;;1.63;70.94
41062;BME280;26812;42.662;23.352;2023-02-04T03:20:37;94460.41;;;2.04;69.99
41062;BME280;26812;42.662;23.352;2023-02-04T03:23:03;94471.66;;;2.35;69.64
41062;BME280;26812;42.662;23.352;2023-02-04T03:25:29;94455.84;;;2.14;69.64
41062;BME280;26812;42.662;23.352;2023-02-04T03:27:56;94465.09;;;2.22;69.19
41062;BME280;26812;42.662;23.352;2023-02-04T03:30:24;94451.72;;;1.83;70.22
41062;BME280;26812;42.662;23.352;2023-02-04T03:32:50;94468.06;;;2.10;70.14
41062;BME280;26812;42.662;23.352;2023-02-04T03:35:16;94460.59;;;1.53;71.06
41062;BME280;26812;42.662;23.352;2023-02-04T03:37:41;94459.28;;;1.50;72.58
41062;BME280;26812;42.662;23.352;2023-02-04T03:40:07;94457.31;;;1.81;72.37
41062;BME280;26812;42.662;23.352;2023-02-04T03:42:33;94453.72;;;2.11;70.54
41062;BME280;26812;42.662;23.352;2023-02-04T03:44:59;94456.25;;;1.82;70.68
41062;BME280;26812;42.662;23.352;2023-02-04T03:47:24;94437.38;;;1.89;69.89
41062;BME280;26812;42.662;23.352;2023-02-04T03:49:50;94439.69;;;1.41;72.36
41062;BME280;26812;42.662;23.352;2023-02-04T03:52:15;94441.50;;;1.51;72.15
41062;BME280;26812;42.662;23.352;2023-02-04T03:54:40;94424.19;;;1.69;71.96
41062;BME280;26812;42.662;23.352;2023-02-04T03:57:06;94424.78;;;2.05;70.89
41062;BME280;26812;42.662;23.352;2023-02-04T03:59:31;94427.19;;;1.47;71.03
41062;BME280;26812;42.662;23.352;2023-02-04T04:01:57;94418.94;;;1.48;72.53
41062;BME280;26812;42.662;23.352;2023-02-04T04:04:22;94400.81;;;1.71;71.54
41062;BME280;26812;42.662;23.352;2023-02-04T04:06:48;94384.03;;;1.75;70.97
41062;BME280;26812;42.662;23.352;2023-02-04T04:09:13;94387.06;;;2.03;70.63
41062;BME280;26812;42.662;23.352;2023-02-04T04:11:39;94381.94;;;2.16;69.82
41062;BME280;26812;42.662;23.352;2023-02-04T04:14:04;94358.34;;;2.05;70.12
41062;BME280;26812;42.662;23.352;2023-02-04T04:16:30;94395.81;;;2.47;69.27
41062;BME280;26812;42.662;23.352;2023-02-04T04:18:55;94371.06;;;2.47;68.91
41062;BME280;26812;42.662;23.352;2023-02-04T04:21:21;94388.53;;;2.58;68.24
41062;BME280;26812;42.662;23.352;2023-02-04T04:23:46;94385.81;;;2.63;68.26
41062;BME280;26812;42.662;23.352;2023-02-04T04:26:11;94390.50;;;2.76;67.85
41062;BME280;26812;42.662;23.352;2023-02-04T04:28:37;94381.16;;;2.79;67.41
41062;BME280;26812;42.662;23.352;2023-02-04T04:31:02;94389.72;;;2.71;67.82
41062;BME280;26812;42.662;23.352;2023-02-04T04:33:28;94372.97;;;2.70;68.19
41062;BME280;26812;42.662;23.352;2023-02-04T04:35:53;94402.56;;;2.64;67.53
41062;BME280;26812;42.662;23.352;2023-02-04T04:38:19;94381.44;;;2.43;68.64
41062;BME280;26812;42.662;23.352;2023-02-04T04:40:44;94389.19;;;2.45;69.24
41062;BME280;26812;42.662;23.352;2023-02-04T04:43:10;94405.94;;;2.01;69.87
41062;BME280;26812;42.662;23.352;2023-02-04T04:45:36;94398.19;;;2.10;70.35
41062;BME280;26812;42.662;23.352;2023-02-04T04:48:01;94400.22;;;2.23;70.07
41062;BME280;26812;42.662;23.352;2023-02-04T04:50:27;94413.63;;;2.47;70.18
41062;BME280;26812;42.662;23.352;2023-02-04T04:52:52;94404.00;;;2.51;69.30
41062;BME280;26812;42.662;23.352;2023-02-04T04:55:18;94414.16;;;2.78;68.47
41062;BME280;26812;42.662;23.352;2023-02-04T04:57:43;94403.34;;;2.64;68.77
41062;BME280;26812;42.662;23.352;2023-02-04T05:00:13;94400.75;;;2.59;68.56
41062;BME280;26812;42.662;23.352;2023-02-04T05:02:39;94407.56;;;2.70;68.78
41062;BME280;26812;42.662;23.352;2023-02-04T05:05:04;94401.97;;;2.72;67.98
41062;BME280;26812;42.662;23.352;2023-02-04T05:07:30;94390.59;;;2.32;69.02
41062;BME280;26812;42.662;23.352;2023-02-04T05:09:55;94427.47;;;2.78;69.11
41062;BME280;26812;42.662;23.352;2023-02-04T05:12:20;94403.84;;;2.37;69.59
41062;BME280;26812;42.662;23.352;2023-02-04T05:14:46;94411.19;;;2.51;70.13
41062;BME280;26812;42.662;23.352;2023-02-04T05:17:11;94404.88;;;2.41;70.79
41062;BME280;26812;42.662;23.352;2023-02-04T05:19:36;94430.66;;;2.75;70.21
41062;BME280;26812;42.662;23.352;2023-02-04T05:22:02;94437.16;;;2.93;69.87
41062;BME280;26812;42.662;23.352;2023-02-04T05:24:27;94421.50;;;2.57;70.58
41062;BME280;26812;42.662;23.352;2023-02-04T05:26:53;94431.50;;;2.70;70.50
41062;BME280;26812;42.662;23.352;2023-02-04T05:29:18;94455.28;;;2.91;70.93
41062;BME280;26812;42.662;23.352;2023-02-04T05:31:43;94449.56;;;2.73;71.17
41062;BME280;26812;42.662;23.352;2023-02-04T05:34:09;94448.59;;;2.93;71.40
41062;BME280;26812;42.662;23.352;2023-02-04T05:36:34;94452.34;;;3.45;70.40
41062;BME280;26812;42.662;23.352;2023-02-04T05:39:00;94469.13;;;3.46;69.83
41062;BME280;26812;42.662;23.352;2023-02-04T05:41:25;94444.28;;;3.26;69.68
41062;BME280;26812;42.662;23.352;2023-02-04T05:43:50;94474.59;;;3.30;70.01
41062;BME280;26812;42.662;23.352;2023-02-04T05:46:16;94478.78;;;3.41;69.76
41062;BME280;26812;42.662;23.352;2023-02-04T05:48:41;94468.72;;;3.33;70.05
41062;BME280;26812;42.662;23.352;2023-02-04T05:51:07;94478.66;;;3.52;69.11
41062;BME280;26812;42.662;23.352;2023-02-04T05:53:32;94478.28;;;3.34;68.89
41062;BME280;26812;42.662;23.352;2023-02-04T05:55:57;94462.97;;;3.50;68.35
41062;BME280;26812;42.662;23.352;2023-02-04T05:58:23;94447.88;;;3.40;67.86
41062;BME280;26812;42.662;23.352;2023-02-04T06:00:48;94444.66;;;3.43;67.77
41062;BME280;26812;42.662;23.352;2023-02-04T06:03:13;94455.25;;;3.49;66.24
41062;BME280;26812;42.662;23.352;2023-02-04T06:05:39;94445.56;;;3.58;66.16
41062;BME280;26812;42.662;23.352;2023-02-04T06:08:05;94456.91;;;3.68;66.10
41062;BME280;26812;42.662;23.352;2023-02-04T06:10:30;94448.44;;;3.85;65.64
41062;BME280;26812;42.662;23.352;2023-02-04T06:12:55;94428.13;;;3.65;64.86
41062;BME280;26812;42.662;23.352;2023-02-04T06:15:21;94435.75;;;3.77;64.94
41062;BME280;26812;42.662;23.352;2023-02-04T06:17:46;94463.06;;;3.88;63.80
41062;BME280;26812;42.662;23.352;2023-02-04T06:20:13;94466.63;;;4.02;63.44
41062;BME280;26812;42.662;23.352;2023-02-04T06:22:38;94478.09;;;3.79;64.10
41062;BME280;26812;42.662;23.352;2023-02-04T06:25:04;94467.94;;;3.81;64.00
41062;BME280;26812;42.662;23.352;2023-02-04T06:27:30;94413.28;;;3.83;63.96
41062;BME280;26812;42.662;23.352;2023-02-04T06:29:55;94459.34;;;4.26;62.43
41062;BME280;26812;42.662;23.352;2023-02-04T06:32:21;94461.97;;;4.31;61.77
41062;BME280;26812;42.662;23.352;2023-02-04T06:34:46;94432.53;;;4.18;61.43
41062;BME280;26812;42.662;23.352;2023-02-04T06:37:12;94469.78;;;4.23;62.34
41062;BME280;26812;42.662;23.352;2023-02-04T06:39:38;94449.84;;;4.39;61.31
41062;BME280;26812;42.662;23.352;2023-02-04T06:42:06;94436.56;;;4.15;61.19
41062;BME280;26812;42.662;23.352;2023-02-04T06:44:31;94448.97;;;4.25;60.95
41062;BME280;26812;42.662;23.352;2023-02-04T06:46:56;94452.16;;;4.46;60.52
41062;BME280;26812;42.662;23.352;2023-02-04T06:49:22;94448.38;;;4.28;60.88
41062;BME280;26812;42.662;23.352;2023-02-04T06:51:49;94412.13;;;4.27;59.66
41062;BME280;26812;42.662;23.352;2023-02-04T06:54:15;94450.13;;;4.38;59.72
41062;BME280;26812;42.662;23.352;2023-02-04T06:56:40;94472.31;;;4.71;59.27
41062;BME280;26812;42.662;23.352;2023-02-04T06:59:08;94430.31;;;4.62;58.88
41062;BME280;26812;42.662;23.352;2023-02-04T07:01:33;94435.19;;;4.74;58.72
41062;BME280;26812;42.662;23.352;2023-02-04T07:03:59;94430.09;;;4.91;57.48
41062;BME280;26812;42.662;23.352;2023-02-04T07:06:24;94441.28;;;4.93;58.05
41062;BME280;26812;42.662;23.352;2023-02-04T07:08:49;94432.28;;;5.03;57.24
41062;BME280;26812;42.662;23.352;2023-02-04T07:11:15;94453.03;;;4.92;57.24
41062;BME280;26812;42.662;23.352;2023-02-04T07:13:40;94442.47;;;5.01;57.45
41062;BME280;26812;42.662;23.352;2023-02-04T07:16:06;94413.84;;;5.20;56.60
41062;BME280;26812;42.662;23.352;2023-02-04T07:18:32;94432.69;;;5.98;53.87
41062;BME280;26812;42.662;23.352;2023-02-04T07:20:57;94417.06;;;7.39;49.71
41062;BME280;26812;42.662;23.352;2023-02-04T07:23:23;94430.69;;;9.55;44.33
41062;BME280;26812;42.662;23.352;2023-02-04T07:25:49;94435.16;;;8.21;46.21
41062;BME280;26812;42.662;23.352;2023-02-04T07:28:19;94430.97;;;7.19;49.26
41062;BME280;26812;42.662;23.352;2023-02-04T07:30:45;94444.38;;;8.37;46.94
41062;BME280;26812;42.662;23.352;2023-02-04T07:33:10;94400.91;;;8.09;46.78
41062;BME280;26812;42.662;23.352;2023-02-04T07:35:35;94411.28;;;10.08;42.71
41062;BME280;26812;42.662;23.352;2023-02-04T07:38:02;94425.44;;;11.75;39.02
41062;BME280;26812;42.662;23.352;2023-02-04T07:40:28;94430.03;;;10.97;38.81
41062;BME280;26812;42.662;23.352;2023-02-04T07:42:53;94406.38;;;11.02;39.26
41062;BME280;26812;42.662;23.352;2023-02-04T07:45:19;94423.28;;;9.43;42.64
41062;BME280;26812;42.662;23.352;2023-02-04T07:47:44;94437.75;;;11.40;39.51
41062;BME280;26812;42.662;23.352;2023-02-04T07:50:10;94413.00;;;12.32;37.27
41062;BME280;26812;42.662;23.352;2023-02-04T07:52:35;94422.13;;;12.92;36.32
41062;BME280;26812;42.662;23.352;2023-02-04T07:55:00;94393.53;;;13.19;34.59
41062;BME280;26812;42.662;23.352;2023-02-04T07:57:26;94417.66;;;11.62;37.98
41062;BME280;26812;42.662;23.352;2023-02-04T07:59:51;94431.72;;;12.77;36.21
41062;BME280;26812;42.662;23.352;2023-02-04T08:02:16;94430.13;;;11.21;38.76
41062;BME280;26812;42.662;23.352;2023-02-04T08:04:42;94420.13;;;10.17;39.93
41062;BME280;26812;42.662;23.352;2023-02-04T08:07:07;94427.84;;;9.60;41.71
41062;BME280;26812;42.662;23.352;2023-02-04T08:09:33;94413.63;;;8.61;44.08
41062;BME280;26812;42.662;23.352;2023-02-04T08:11:58;94420.88;;;7.46;46.61
41062;BME280;26812;42.662;23.352;2023-02-04T08:14:24;94448.97;;;7.49;48.10
41062;BME280;26812;42.662;23.352;2023-02-04T08:16:50;94416.66;;;6.34;50.84
41062;BME280;26812;42.662;23.352;2023-02-04T08:19:15;94411.13;;;6.30;51.00
41062;BME280;26812;42.662;23.352;2023-02-04T08:21:44;94452.22;;;6.34;52.23
41062;BME280;26812;42.662;23.352;2023-02-04T08:24:11;94428.00;;;6.17;52.50
41062;BME280;26812;42.662;23.352;2023-02-04T08:26:36;94401.47;;;5.79;53.35
41062;BME280;26812;42.662;23.352;2023-02-04T08:29:02;94434.44;;;5.75;54.35
41062;BME280;26812;42.662;23.352;2023-02-04T08:31:27;94416.81;;;6.01;53.21
41062;BME280;26812;42.662;23.352;2023-02-04T08:33:53;94376.44;;;5.75;53.59
41062;BME280;26812;42.662;23.352;2023-02-04T08:36:18;94417.44;;;5.84;54.48
41062;BME280;26812;42.662;23.352;2023-02-04T08:38:44;94400.59;;;5.70;54.12
41062;BME280;26812;42.662;23.352;2023-02-04T08:41:09;94429.09;;;5.88;54.09
41062;BME280;26812;42.662;23.352;2023-02-04T08:43:35;94424.53;;;6.16;53.85
41062;BME280;26812;42.662;23.352;2023-02-04T08:46:01;94409.66;;;6.10;54.25
41062;BME280;26812;42.662;23.352;2023-02-04T08:48:26;94352.19;;;5.17;55.96
41062;BME280;26812;42.662;23.352;2023-02-04T08:50:52;94341.94;;;5.24;56.00
41062;BME280;26812;42.662;23.352;2023-02-04T08:53:17;94422.41;;;5.91;55.60
41062;BME280;26812;42.662;23.352;2023-02-04T08:55:43;94410.28;;;5.80;55.97
41062;BME280;26812;42.662;23.352;2023-02-04T08:58:08;94390.88;;;5.88;55.92
41062;BME280;26812;42.662;23.352;2023-02-04T09:00:34;94416.63;;;5.98;56.04
41062;BME280;26812;42.662;23.352;2023-02-04T09:02:59;94384.34;;;5.80;56.41
41062;BME280;26812;42.662;23.352;2023-02-04T09:05:24;94387.34;;;5.51;57.22
41062;BME280;26812;42.662;23.352;2023-02-04T09:07:50;94415.97;;;5.92;56.85
41062;BME280;26812;42.662;23.352;2023-02-04T09:10:15;94404.16;;;5.66;56.98
41062;BME280;26812;42.662;23.352;2023-02-04T09:12:41;94401.38;;;5.71;56.54
41062;BME280;26812;42.662;23.352;2023-02-04T09:15:08;94396.72;;;6.04;55.66
41062;BME280;26812;42.662;23.352;2023-02-04T09:17:34;94405.16;;;5.97;55.26
41062;BME280;26812;42.662;23.352;2023-02-04T09:20:00;94404.56;;;6.00;55.61
41062;BME280;26812;42.662;23.352;2023-02-04T09:22:25;94406.22;;;6.46;54.29
41062;BME280;26812;42.662;23.352;2023-02-04T09:24:51;94392.03;;;6.23;54.30
41062;BME280;26812;42.662;23.352;2023-02-04T09:27:16;94372.09;;;6.29;53.58
41062;BME280;26812;42.662;23.352;2023-02-04T09:29:42;94410.03;;;6.31;52.81
41062;BME280;26812;42.662;23.352;2023-02-04T09:32:07;94390.38;;;6.00;53.31
41062;BME280;26812;42.662;23.352;2023-02-04T09:34:32;94351.00;;;5.50;54.22
41062;BME280;26812;42.662;23.352;2023-02-04T09:36:58;94400.78;;;5.87;55.04
41062;BME280;26812;42.662;23.352;2023-02-04T09:39:23;94410.59;;;5.92;55.45
41062;BME280;26812;42.662;23.352;2023-02-04T09:41:49;94383.44;;;5.16;58.23
41062;BME280;26812;42.662;23.352;2023-02-04T09:44:19;94408.13;;;5.41;59.51
41062;BME280;26812;42.662;23.352;2023-02-04T09:46:51;94402.28;;;5.52;59.07
41062;BME280;26812;42.662;23.352;2023-02-04T09:49:17;94401.22;;;5.53;59.35
41062;BME280;26812;42.662;23.352;2023-02-04T09:51:44;94391.09;;;5.37;60.78
41062;BME280;26812;42.662;23.352;2023-02-04T09:54:13;94338.25;;;4.92;61.81
41062;BME280;26812;42.662;23.352;2023-02-04T09:56:39;94390.72;;;5.57;61.86
41062;BME280;26812;42.662;23.352;2023-02-04T09:59:12;94389.31;;;5.46;62.29
41062;BME280;26812;42.662;23.352;2023-02-04T10:01:39;94368.34;;;5.39;62.04
41062;BME280;26812;42.662;23.352;2023-02-04T10:04:05;94364.47;;;5.73;61.88
41062;BME280;26812;42.662;23.352;2023-02-04T10:06:34;94358.91;;;5.97;60.69
41062;BME280;26812;42.662;23.352;2023-02-04T10:09:01;94359.31;;;5.49;60.59
41062;BME280;26812;42.662;23.352;2023-02-04T10:11:30;94349.22;;;5.18;62.28
41062;BME280;26812;42.662;23.352;2023-02-04T10:13:57;94376.91;;;5.77;60.36
41062;BME280;26812;42.662;23.352;2023-02-04T10:16:25;94361.09;;;5.67;60.03
41062;BME280;26812;42.662;23.352;2023-02-04T10:18:57;94372.59;;;5.54;60.28
41062;BME280;26812;42.662;23.352;2023-02-04T10:21:29;94334.13;;;5.27;60.56
41062;BME280;26812;42.662;23.352;2023-02-04T10:23:57;94355.06;;;5.48;61.07
41062;BME280;26812;42.662;23.352;2023-02-04T10:26:26;94357.03;;;5.70;60.61
41062;BME280;26812;42.662;23.352;2023-02-04T10:31:27;94351.72;;;5.42;60.73
41062;BME280;26812;42.662;23.352;2023-02-04T10:34:17;94349.56;;;5.30;61.37
41062;BME280;26812;42.662;23.352;2023-02-04T10:36:48;94352.28;;;5.67;61.39
41062;BME280;26812;42.662;23.352;2023-02-04T10:39:18;94340.63;;;5.49;60.29
41062;BME280;26812;42.662;23.352;2023-02-04T10:44:16;94347.44;;;5.69;61.95
41062;BME280;26812;42.662;23.352;2023-02-04T10:46:42;94315.09;;;5.43;63.45
41062;BME280;26812;42.662;23.352;2023-02-04T10:49:23;94353.88;;;5.13;65.33
41062;BME280;26812;42.662;23.352;2023-02-04T10:51:50;94340.34;;;5.09;66.24
41062;BME280;26812;42.662;23.352;2023-02-04T10:54:28;94322.78;;;4.76;67.24
41062;BME280;26812;42.662;23.352;2023-02-04T10:57:26;94257.84;;;4.20;68.38
41062;BME280;26812;42.662;23.352;2023-02-04T10:59:54;94314.53;;;5.05;67.40
41062;BME280;26812;42.662;23.352;2023-02-04T11:04:47;94322.16;;;5.25;66.38
41062;BME280;26812;42.662;23.352;2023-02-04T11:07:12;94311.75;;;5.10;66.08
41062;BME280;26812;42.662;23.352;2023-02-04T11:09:42;94307.59;;;5.31;66.43
41062;BME280;26812;42.662;23.352;2023-02-04T11:14:56;94292.94;;;5.42;64.21
41062;BME280;26812;42.662;23.352;2023-02-04T11:17:28;94320.97;;;5.95;63.25
41062;BME280;26812;42.662;23.352;2023-02-04T11:19:56;94310.56;;;6.29;62.92
41062;BME280;26812;42.662;23.352;2023-02-04T11:22:41;94297.97;;;6.52;61.57
41062;BME280;26812;42.662;23.352;2023-02-04T11:25:35;94313.91;;;6.35;61.76
41062;BME280;26812;42.662;23.352;2023-02-04T11:28:23;94312.59;;;6.10;62.15
41062;BME280;26812;42.662;23.352;2023-02-04T11:31:00;94313.38;;;6.46;61.33
41062;BME280;26812;42.662;23.352;2023-02-04T11:33:37;94322.34;;;6.50;61.18
41062;BME280;26812;42.662;23.352;2023-02-04T11:36:05;94324.59;;;6.35;60.90
41062;BME280;26812;42.662;23.352;2023-02-04T11:38:32;94321.69;;;6.45;61.42
41062;BME280;26812;42.662;23.352;2023-02-04T11:40:58;94298.69;;;5.99;62.23
41062;BME280;26812;42.662;23.352;2023-02-04T11:43:25;94322.31;;;6.06;62.79
41062;BME280;26812;42.662;23.352;2023-02-04T11:46:02;94326.19;;;6.36;61.85
41062;BME280;26812;42.662;23.352;2023-02-04T11:48:28;94330.09;;;5.94;62.99
41062;BME280;26812;42.662;23.352;2023-02-04T11:50:59;94303.97;;;5.90;63.37
41062;BME280;26812;42.662;23.352;2023-02-04T11:53:32;94315.28;;;6.10;63.05
41062;BME280;26812;42.662;23.352;2023-02-04T11:55:58;94330.66;;;6.04;62.38
41062;BME280;26812;42.662;23.352;2023-02-04T11:58:24;94269.38;;;5.44;65.31
41062;BME280;26812;42.662;23.352;2023-02-04T12:00:53;94314.03;;;5.80;64.95
41062;BME280;26812;42.662;23.352;2023-02-04T12:03:30;94330.88;;;6.30;64.13
41062;BME280;26812;42.662;23.352;2023-02-04T12:05:58;94296.31;;;6.42;62.72
41062;BME280;26812;42.662;23.352;2023-02-04T12:08:29;94316.88;;;6.33;62.62
41062;BME280;26812;42.662;23.352;2023-02-04T12:11:03;94313.72;;;6.31;63.23
41062;BME280;26812;42.662;23.352;2023-02-04T12:13:30;94290.06;;;6.25;63.30
41062;BME280;26812;42.662;23.352;2023-02-04T12:16:03;94314.03;;;6.52;63.19
41062;BME280;26812;42.662;23.352;2023-02-04T12:18:29;94300.50;;;5.90;65.01
41062;BME280;26812;42.662;23.352;2023-02-04T12:20:55;94305.16;;;5.71;65.64
41062;BME280;26812;42.662;23.352;2023-02-04T12:23:22;94296.25;;;5.25;67.39
41062;BME280;26812;42.662;23.352;2023-02-04T12:25:48;94311.03;;;4.77;68.31
41062;BME280;26812;42.662;23.352;2023-02-04T12:28:13;94256.56;;;4.78;68.48
41062;BME280;26812;42.662;23.352;2023-02-04T12:30:39;94310.97;;;5.23;68.25
41062;BME280;26812;42.662;23.352;2023-02-04T12:33:04;94307.69;;;5.40;68.68
41062;BME280;26812;42.662;23.352;2023-02-04T12:35:31;94299.00;;;5.20;68.24
41062;BME280;26812;42.662;23.352;2023-02-04T12:37:56;94296.13;;;5.03;68.78
41062;BME280;26812;42.662;23.352;2023-02-04T12:40:22;94300.16;;;5.55;68.41
41062;BME280;26812;42.662;23.352;2023-02-04T12:42:47;94292.44;;;5.54;67.91
41062;BME280;26812;42.662;23.352;2023-02-04T12:45:14;94292.16;;;5.42;67.02
41062;BME280;26812;42.662;23.352;2023-02-04T12:47:41;94276.47;;;4.99;66.78
41062;BME280;26812;42.662;23.352;2023-02-04T12:50:07;94301.28;;;5.27;66.46
41062;BME280;26812;42.662;23.352;2023-02-04T12:52:33;94296.88;;;5.58;66.09
41062;BME280;26812;42.662;23.352;2023-02-04T12:54:58;94302.34;;;5.40;64.67
41062;BME280;26812;42.662;23.352;2023-02-04T12:57:25;94285.91;;;5.46;63.89
41062;BME280;26812;42.662;23.352;2023-02-04T12:59:51;94264.06;;;5.30;63.55
41062;BME280;26812;42.662;23.352;2023-02-04T13:02:16;94295.78;;;5.59;63.00
41062;BME280;26812;42.662;23.352;2023-02-04T13:04:42;94283.56;;;5.17;63.30
41062;BME280;26812;42.662;23.352;2023-02-04T13:07:08;94273.00;;;4.98;63.77
41062;BME280;26812;42.662;23.352;2023-02-04T13:09:34;94263.19;;;4.80;63.79
41062;BME280;26812;42.662;23.352;2023-02-04T13:11:59;94283.97;;;5.24;63.82
41062;BME280;26812;42.662;23.352;2023-02-04T13:14:25;94282.25;;;5.42;62.55